createdAt,value
2019-02-23T00:01:25.246Z,65.80
2019-02-23T00:03:54.268Z,66.20
2019-02-23T00:06:29.899Z,67.20
2019-02-23T00:08:52.215Z,68.30
2019-02-23T00:11:20.273Z,68.40
2019-02-23T00:13:48.354Z,68.70
2019-02-23T00:16:16.686Z,70.30
2019-02-23T00:18:44.622Z,71.50
2019-02-23T00:21:14.608Z,72.60
2019-02-23T00:23:43.005Z,73.40
2019-02-23T00:26:11.115Z,74.70
2019-02-23T00:28:39.055Z,73.90
2019-02-23T00:31:07.440Z,74.50
2019-02-23T00:33:35.512Z,74.30
2019-02-23T00:36:03.440Z,74.10
2019-02-23T00:38:31.426Z,74.20
2019-02-23T00:40:59.413Z,74.60
2019-02-23T00:43:27.489Z,75.10
2019-02-23T00:45:55.888Z,75.70
2019-02-23T00:48:24.028Z,76.10
2019-02-23T00:50:51.943Z,75.80
2019-02-23T00:53:30.580Z,75.60
2019-02-23T00:55:58.570Z,75.00
2019-02-23T00:58:26.494Z,75.40
2019-02-23T01:00:54.378Z,75.30
2019-02-23T01:03:22.338Z,74.90
2019-02-23T01:05:50.520Z,75.20
2019-02-23T01:08:18.484Z,75.20
2019-02-23T01:10:57.507Z,75.50
2019-02-23T01:13:15.995Z,76.20
2019-02-23T01:15:44.039Z,77.30
2019-02-23T01:18:11.977Z,78.10
2019-02-23T01:20:39.924Z,78.20
2019-02-23T01:23:08.171Z,79.70
2019-02-23T01:25:36.131Z,80.20
2019-02-23T01:28:04.108Z,80.70
2019-02-23T01:30:32.028Z,81.30
2019-02-23T01:33:00.057Z,80.10
2019-02-23T01:35:28.062Z,78.60
2019-02-23T01:37:56.516Z,79.50
2019-02-23T01:40:24.422Z,81.30
2019-02-23T01:42:52.609Z,82.10
2019-02-23T01:45:20.709Z,81.90
2019-02-23T01:47:48.738Z,81.20
2019-02-23T01:50:16.695Z,80.90
2019-02-23T01:52:44.667Z,80.80
2019-02-23T01:55:12.679Z,82.50
2019-02-23T01:57:40.615Z,84.30
2019-02-23T02:00:08.757Z,84.70
2019-02-23T02:02:36.681Z,83.80
2019-02-23T02:05:04.728Z,83.50
2019-02-23T02:07:32.703Z,83.80
2019-02-23T02:10:00.623Z,83.20
2019-02-23T02:12:28.586Z,83.50
2019-02-23T02:14:56.612Z,83.20
2019-02-23T02:17:24.508Z,82.60
2019-02-23T02:19:52.471Z,82.40
2019-02-23T02:22:20.580Z,81.30
2019-02-23T02:24:48.859Z,79.50
2019-02-23T02:27:17.036Z,79.80
2019-02-23T02:29:45.310Z,80.20
2019-02-23T02:32:13.382Z,80.20
2019-02-23T02:34:41.537Z,78.90
2019-02-23T02:37:09.822Z,78.30
2019-02-23T02:39:38.146Z,78.30
2019-02-23T02:42:06.269Z,77.80
2019-02-23T02:44:34.547Z,77.70
2019-02-23T02:47:02.740Z,77.30
2019-02-23T02:49:30.890Z,77.20
2019-02-23T02:51:59.085Z,77.60
2019-02-23T02:54:27.279Z,77.60
2019-02-23T02:56:55.431Z,77.30
2019-02-23T02:59:23.591Z,76.90
2019-02-23T03:01:51.671Z,77.60
2019-02-23T03:04:19.957Z,81.20
2019-02-23T03:06:48.220Z,83.60
2019-02-23T03:09:16.310Z,86.50
2019-02-23T03:11:44.476Z,86.60
2019-02-23T03:14:12.453Z,86.70
2019-02-23T03:16:40.618Z,87.00
2019-02-23T03:19:08.800Z,87.20
2019-02-23T03:21:36.961Z,86.80
2019-02-23T03:24:05.254Z,86.20
2019-02-23T03:26:33.509Z,86.00
2019-02-23T03:29:01.892Z,85.00
2019-02-23T03:31:29.986Z,85.00
2019-02-23T03:33:58.557Z,84.80
2019-02-23T03:36:26.829Z,84.00
2019-02-23T03:38:55.212Z,83.60
2019-02-23T03:41:23.283Z,82.90
2019-02-23T03:43:51.572Z,82.10
2019-02-23T03:46:19.937Z,82.80
2019-02-23T03:48:48.011Z,82.70
2019-02-23T03:51:16.257Z,80.60
2019-02-23T03:53:45.407Z,79.40
2019-02-23T03:56:13.352Z,75.50
2019-02-23T03:58:41.269Z,75.50
2019-02-23T04:01:09.410Z,75.80
2019-02-23T04:03:37.518Z,74.60
2019-02-23T04:06:05.624Z,72.10
2019-02-23T04:08:33.566Z,72.00
2019-02-23T04:11:01.795Z,70.40
2019-02-23T04:13:29.852Z,69.50
2019-02-23T04:15:58.030Z,68.10
2019-02-23T04:18:26.615Z,68.30
2019-02-23T04:21:01.730Z,66.80
2019-02-23T04:23:24.807Z,65.50
2019-02-23T04:25:53.284Z,64.30
2019-02-23T04:28:21.565Z,64.20
2019-02-23T04:30:49.853Z,63.40
2019-02-23T04:33:18.105Z,63.40
2019-02-23T04:35:49.331Z,62.70
2019-02-23T04:38:17.202Z,63.00
2019-02-23T04:40:45.283Z,63.00
2019-02-23T04:43:13.666Z,63.10
2019-02-23T04:45:41.757Z,63.10
2019-02-23T04:48:09.806Z,63.50
2019-02-23T04:50:38.102Z,64.10
2019-02-23T04:53:06.071Z,64.30
2019-02-23T04:55:34.245Z,64.60
2019-02-23T04:58:02.504Z,65.20
2019-02-23T05:00:31.007Z,65.80
2019-02-23T05:02:59.176Z,66.20
2019-02-23T05:05:27.438Z,66.10
2019-02-23T05:07:55.422Z,66.90
2019-02-23T05:10:23.483Z,66.80
2019-02-23T05:12:51.776Z,67.30
2019-02-23T05:15:20.150Z,67.80
2019-02-23T05:17:49.086Z,68.20
2019-02-23T05:20:17.212Z,69.00
2019-02-23T05:22:45.285Z,69.20
2019-02-23T05:25:13.347Z,69.60
2019-02-23T05:27:41.523Z,70.00
2019-02-23T05:30:09.920Z,70.50
2019-02-23T05:32:37.985Z,72.10
2019-02-23T05:35:06.248Z,70.90
2019-02-23T05:37:34.435Z,71.40
2019-02-23T05:40:02.815Z,72.20
2019-02-23T05:42:34.679Z,72.20
2019-02-23T05:45:03.168Z,72.40
2019-02-23T05:47:31.208Z,72.80
2019-02-23T05:49:59.589Z,73.10
2019-02-23T05:52:27.510Z,73.70
2019-02-23T05:54:55.486Z,74.20
2019-02-23T05:57:23.449Z,75.30
2019-02-23T05:59:51.388Z,75.20
2019-02-23T06:02:19.305Z,75.90
2019-02-23T06:04:47.339Z,76.40
2019-02-23T06:07:15.774Z,76.20
2019-02-23T06:09:43.706Z,76.50
2019-02-23T06:12:11.689Z,76.60
2019-02-23T06:14:40.704Z,76.80
2019-02-23T06:17:08.664Z,77.90
2019-02-23T06:19:36.623Z,77.80
2019-02-23T06:22:04.587Z,77.80
2019-02-23T06:24:32.509Z,78.10
2019-02-23T06:27:00.587Z,78.00
2019-02-23T06:29:28.484Z,78.10
2019-02-23T06:31:56.402Z,78.20
2019-02-23T06:34:26.101Z,78.30
2019-02-23T06:36:54.050Z,78.80
2019-02-23T06:39:21.971Z,78.80
2019-02-23T06:41:49.941Z,79.00
2019-02-23T06:44:18.008Z,79.10
2019-02-23T06:46:46.085Z,79.10
2019-02-23T06:49:14.344Z,79.40
2019-02-23T06:51:42.528Z,79.70
2019-02-23T06:54:10.692Z,79.60
2019-02-23T06:56:38.881Z,79.90
2019-02-23T06:59:07.257Z,79.70
2019-02-23T07:01:35.370Z,79.60
2019-02-23T07:04:03.604Z,79.70
2019-02-23T07:06:31.704Z,79.30
2019-02-23T07:08:59.950Z,79.20
2019-02-23T07:11:29.862Z,79.00
2019-02-23T07:13:58.448Z,78.80
2019-02-23T07:16:27.033Z,78.70
2019-02-23T07:18:55.125Z,78.80
2019-02-23T07:21:23.265Z,79.00
2019-02-23T07:23:51.671Z,78.10
2019-02-23T07:26:19.920Z,77.80
2019-02-23T07:28:48.102Z,77.70
2019-02-23T07:31:16.491Z,77.60
2019-02-23T07:33:44.670Z,77.70
2019-02-23T07:36:12.742Z,77.40
2019-02-23T07:38:40.901Z,76.50
2019-02-23T07:41:08.981Z,76.00
2019-02-23T07:43:38.706Z,76.70
2019-02-23T07:46:06.745Z,75.50
2019-02-23T07:48:34.922Z,75.30
2019-02-23T07:51:03.115Z,75.00
2019-02-23T07:53:31.171Z,73.50
2019-02-23T07:55:59.352Z,71.90
2019-02-23T07:58:27.448Z,68.40
2019-02-23T08:00:55.489Z,66.50
2019-02-23T08:03:23.561Z,64.40
2019-02-23T08:05:51.631Z,62.90
2019-02-23T08:08:19.823Z,61.70
2019-02-23T08:10:47.989Z,59.90
2019-02-23T08:13:15.938Z,57.70
2019-02-23T08:15:43.863Z,56.70
2019-02-23T08:18:11.839Z,56.00
2019-02-23T08:20:39.771Z,56.10
2019-02-23T08:23:07.679Z,55.30
2019-02-23T08:25:35.867Z,54.10
2019-02-23T08:28:03.819Z,53.70
2019-02-23T08:30:31.750Z,53.40
2019-02-23T08:32:59.825Z,53.50
2019-02-23T08:35:27.729Z,52.90
2019-02-23T08:37:55.644Z,52.20
2019-02-23T08:40:23.750Z,51.80
2019-02-23T08:42:51.651Z,51.80
2019-02-23T08:45:19.548Z,50.70
2019-02-23T08:47:47.481Z,49.70
2019-02-23T08:50:15.417Z,48.20
2019-02-23T08:52:49.328Z,48.10
2019-02-23T08:55:12.873Z,47.70
2019-02-23T08:57:40.790Z,47.30
2019-02-23T09:00:08.901Z,47.00
2019-02-23T09:02:37.288Z,46.60
2019-02-23T09:05:05.208Z,45.90
2019-02-23T09:07:33.137Z,46.30
2019-02-23T09:10:01.188Z,46.60
2019-02-23T09:12:29.115Z,45.70
2019-02-23T09:14:57.023Z,44.90
2019-02-23T09:17:25.116Z,44.60
2019-02-23T09:19:53.133Z,44.20
2019-02-23T09:22:21.253Z,44.70
2019-02-23T09:24:49.201Z,44.70
2019-02-23T09:27:17.295Z,44.40
2019-02-23T09:29:45.469Z,44.30
2019-02-23T09:32:13.414Z,43.00
2019-02-23T09:34:41.511Z,43.80
2019-02-23T09:37:09.454Z,42.70
2019-02-23T09:39:37.421Z,42.10
2019-02-23T09:42:07.706Z,42.00
2019-02-23T09:44:35.139Z,41.00
2019-02-23T09:47:03.335Z,40.80
2019-02-23T09:49:31.314Z,41.00
2019-02-23T09:51:59.266Z,40.20
2019-02-23T09:54:27.198Z,40.80
2019-02-23T09:56:55.312Z,40.40
2019-02-23T09:59:23.231Z,40.20
2019-02-23T10:01:51.091Z,40.50
2019-02-23T10:04:18.988Z,40.70
2019-02-23T10:06:47.210Z,40.40
2019-02-23T10:09:15.132Z,40.60
2019-02-23T10:11:43.733Z,39.80
2019-02-23T10:14:11.673Z,38.90
2019-02-23T10:16:39.561Z,39.30
2019-02-23T10:19:07.678Z,39.70
2019-02-23T10:21:35.590Z,40.20
2019-02-23T10:24:03.467Z,40.80
2019-02-23T10:26:31.303Z,42.10
2019-02-23T10:28:59.404Z,43.10
2019-02-23T10:31:28.268Z,42.80
2019-02-23T10:33:56.140Z,43.00
2019-02-23T10:36:24.113Z,44.40
2019-02-23T10:38:52.010Z,45.50
2019-02-23T10:41:19.897Z,46.70
2019-02-23T10:43:47.890Z,47.20
2019-02-23T10:46:15.771Z,47.80
2019-02-23T10:48:43.697Z,49.10
2019-02-23T10:51:11.634Z,49.90
2019-02-23T10:53:39.528Z,51.00
2019-02-23T10:56:07.512Z,52.00
2019-02-23T10:58:35.417Z,53.00
2019-02-23T11:01:03.300Z,53.60
2019-02-23T11:03:31.201Z,53.80
2019-02-23T11:05:59.462Z,54.20
2019-02-23T11:08:27.505Z,54.50
2019-02-23T11:10:55.417Z,54.60
2019-02-23T11:13:23.375Z,54.90
2019-02-23T11:15:51.399Z,55.10
2019-02-23T11:18:19.286Z,55.60
2019-02-23T11:20:47.268Z,56.60
2019-02-23T11:23:15.645Z,56.80
2019-02-23T11:25:43.717Z,57.60
2019-02-23T11:28:12.981Z,56.20
2019-02-23T11:30:41.071Z,56.00
2019-02-23T11:33:09.015Z,56.50
2019-02-23T11:35:37.254Z,57.10
2019-02-23T11:38:05.304Z,57.20
2019-02-23T11:40:33.376Z,57.50
2019-02-23T11:43:01.759Z,57.60
2019-02-23T11:45:30.998Z,57.20
2019-02-23T11:47:59.321Z,56.90
2019-02-23T11:50:27.404Z,56.80
2019-02-23T11:52:55.377Z,56.90
2019-02-23T11:55:23.470Z,57.30
2019-02-23T11:57:51.419Z,57.10
2019-02-23T12:00:19.397Z,57.40
2019-02-23T12:02:52.590Z,57.10
2019-02-23T12:05:17.373Z,57.10
2019-02-23T12:07:45.251Z,57.40
2019-02-23T12:10:13.167Z,57.70
2019-02-23T12:12:41.112Z,57.90
2019-02-23T12:15:09.280Z,58.30
2019-02-23T12:17:39.176Z,58.00
2019-02-23T12:20:07.053Z,58.30
2019-02-23T12:22:35.063Z,58.30
2019-02-23T12:25:02.974Z,57.60
2019-02-23T12:27:30.948Z,56.80
2019-02-23T12:29:58.865Z,56.80
2019-02-23T12:32:26.755Z,56.50
2019-02-23T12:34:54.842Z,56.40
2019-02-23T12:37:22.991Z,57.10
2019-02-23T12:39:50.917Z,56.30
2019-02-23T12:42:18.831Z,56.10
2019-02-23T12:44:46.937Z,56.10
2019-02-23T12:47:15.027Z,55.80
2019-02-23T12:49:42.979Z,55.40
2019-02-23T12:52:10.898Z,55.00
2019-02-23T12:54:38.855Z,54.70
2019-02-23T12:57:06.818Z,55.30
2019-02-23T12:59:35.592Z,54.30
2019-02-23T13:02:03.523Z,54.30
2019-02-23T13:04:31.539Z,54.60
2019-02-23T13:06:59.469Z,54.20
2019-02-23T13:09:27.467Z,54.20
2019-02-23T13:11:55.864Z,53.70
2019-02-23T13:14:23.772Z,53.80
2019-02-23T13:16:51.909Z,54.00
2019-02-23T13:19:19.846Z,53.60
2019-02-23T13:21:47.815Z,53.50
2019-02-23T13:24:15.797Z,53.50
2019-02-23T13:26:43.779Z,54.00
2019-02-23T13:29:11.685Z,54.70
2019-02-23T13:31:39.607Z,54.70
2019-02-23T13:34:07.800Z,54.90
2019-02-23T13:36:35.763Z,54.20
2019-02-23T13:39:04.053Z,54.70
2019-02-23T13:41:31.978Z,54.10
2019-02-23T13:43:59.925Z,53.80
2019-02-23T13:46:27.917Z,53.00
2019-02-23T13:48:55.822Z,53.30
2019-02-23T13:51:23.750Z,53.10
2019-02-23T13:53:51.694Z,53.30
2019-02-23T13:56:19.904Z,53.30
2019-02-23T13:58:47.930Z,53.40
2019-02-23T14:01:15.896Z,53.30
2019-02-23T14:03:43.840Z,52.90
2019-02-23T14:06:11.746Z,53.80
2019-02-23T14:08:39.635Z,54.10
2019-02-23T14:11:07.586Z,54.60
2019-02-23T14:13:35.691Z,54.30
2019-02-23T14:16:03.607Z,54.10
2019-02-23T14:18:32.528Z,53.80
2019-02-23T14:21:00.434Z,53.50
2019-02-23T14:23:28.345Z,53.50
2019-02-23T14:25:57.081Z,53.50
2019-02-23T14:28:25.172Z,53.30
2019-02-23T14:30:53.210Z,53.00
2019-02-23T14:33:21.284Z,52.10
2019-02-23T14:35:49.201Z,51.50
2019-02-23T14:38:17.121Z,52.30
2019-02-23T14:40:45.259Z,51.80
2019-02-23T14:43:13.196Z,52.60
2019-02-23T14:45:41.139Z,51.80
2019-02-23T14:48:09.184Z,51.50
2019-02-23T14:50:37.090Z,50.50
2019-02-23T14:53:04.994Z,50.70
2019-02-23T14:55:33.293Z,51.20
2019-02-23T14:58:01.245Z,50.80
2019-02-23T15:00:29.373Z,51.40
2019-02-23T15:02:57.699Z,51.30
2019-02-23T15:05:25.651Z,51.70
2019-02-23T15:07:53.546Z,52.00
2019-02-23T15:10:21.752Z,51.70
2019-02-23T15:12:49.649Z,51.50
2019-02-23T15:15:17.563Z,50.90
2019-02-23T15:17:45.718Z,50.20
2019-02-23T15:20:14.167Z,49.30
2019-02-23T15:22:42.126Z,48.10
2019-02-23T15:25:13.186Z,47.90
2019-02-23T15:27:39.766Z,46.80
2019-02-23T15:30:07.646Z,45.70
2019-02-23T15:32:37.458Z,45.20
2019-02-23T15:35:05.543Z,44.50
2019-02-23T15:37:33.485Z,43.50
2019-02-23T15:40:01.433Z,43.60
2019-02-23T15:42:29.372Z,43.40
2019-02-23T15:44:57.226Z,44.10
2019-02-23T15:47:25.236Z,45.30
2019-02-23T15:49:55.781Z,44.80
2019-02-23T15:52:22.765Z,44.90
2019-02-23T15:54:50.685Z,44.00
2019-02-23T15:57:18.869Z,44.60
2019-02-23T15:59:46.794Z,45.40
2019-02-23T16:02:14.731Z,48.70
2019-02-23T16:04:42.684Z,51.30
2019-02-23T16:07:10.583Z,55.30
2019-02-23T16:09:38.476Z,58.30
2019-02-23T16:12:09.132Z,60.80
2019-02-23T16:14:37.016Z,64.00
2019-02-23T16:17:05.095Z,65.90
2019-02-23T16:19:33.047Z,68.50
2019-02-23T16:22:01.041Z,70.80
2019-02-23T16:24:28.996Z,72.40
2019-02-23T16:26:57.027Z,74.40
2019-02-23T16:29:24.968Z,75.30
2019-02-23T16:31:52.894Z,76.60
2019-02-23T16:34:20.838Z,77.50
2019-02-23T16:36:50.001Z,77.90
2019-02-23T16:39:17.962Z,77.60
2019-02-23T16:41:46.332Z,77.50
2019-02-23T16:44:14.394Z,78.70
2019-02-23T16:46:42.480Z,77.50
2019-02-23T16:49:11.590Z,77.10
2019-02-23T16:51:39.720Z,74.10
2019-02-23T16:54:07.816Z,72.30
2019-02-23T16:56:35.886Z,71.70
2019-02-23T16:59:04.863Z,71.10
2019-02-23T17:01:32.965Z,71.60
2019-02-23T17:04:01.128Z,72.80
2019-02-23T17:06:32.749Z,73.10
2019-02-23T17:08:59.814Z,74.80
2019-02-23T17:11:28.005Z,75.30
2019-02-23T17:13:56.184Z,74.90
2019-02-23T17:16:24.263Z,74.30
2019-02-23T17:18:52.833Z,76.00
2019-02-23T17:21:21.099Z,78.10
2019-02-23T17:23:49.114Z,78.60
2019-02-23T17:26:17.357Z,79.20
2019-02-23T17:28:45.406Z,77.50
2019-02-23T17:31:13.373Z,76.40
2019-02-23T17:33:41.572Z,75.10
2019-02-23T17:36:09.536Z,73.80
2019-02-23T17:38:37.613Z,72.20
2019-02-23T17:41:05.670Z,71.80
2019-02-23T17:43:33.654Z,71.30
2019-02-23T17:46:01.831Z,71.10
2019-02-23T17:50:57.767Z,69.90
2019-02-23T17:53:25.738Z,70.20
2019-02-23T17:55:53.809Z,68.80
2019-02-23T17:58:21.887Z,67.30
2019-02-23T18:00:49.933Z,66.60
2019-02-23T18:03:18.023Z,66.30
2019-02-23T18:05:45.978Z,65.80
2019-02-23T18:08:13.962Z,65.10
2019-02-23T18:10:41.935Z,64.50
2019-02-23T18:13:09.908Z,62.10
2019-02-23T18:15:37.868Z,61.40
2019-02-23T18:18:06.042Z,60.70
2019-02-23T18:20:34.115Z,60.70
2019-02-23T18:23:02.279Z,59.60
2019-02-23T18:25:30.259Z,59.30
2019-02-23T18:27:58.231Z,59.40
2019-02-23T18:30:26.303Z,60.20
2019-02-23T18:32:54.274Z,59.40
2019-02-23T18:35:22.419Z,58.20
2019-02-23T18:37:50.413Z,58.80
2019-02-23T18:40:18.359Z,58.50
2019-02-23T18:42:46.566Z,59.00
2019-02-23T18:45:14.641Z,58.50
2019-02-23T18:47:42.701Z,59.00
2019-02-23T18:50:10.671Z,58.90
2019-02-23T18:52:38.616Z,58.70
2019-02-23T18:55:06.715Z,59.10
2019-02-23T18:57:36.729Z,58.60
2019-02-23T19:00:04.701Z,58.60
2019-02-23T19:02:32.669Z,58.70
2019-02-23T19:05:00.827Z,59.10
2019-02-23T19:07:28.914Z,59.60
2019-02-23T19:09:56.863Z,59.20
2019-02-23T19:12:24.958Z,58.20
2019-02-23T19:14:53.134Z,59.00
2019-02-23T19:17:21.185Z,58.00
2019-02-23T19:19:49.787Z,58.20
2019-02-23T19:22:17.865Z,58.00
2019-02-23T19:24:45.935Z,57.50
2019-02-23T19:27:13.999Z,57.70
2019-02-23T19:29:43.538Z,57.90
2019-02-23T19:32:11.680Z,58.40
2019-02-23T19:34:39.738Z,58.70
2019-02-23T19:37:07.929Z,58.80
2019-02-23T19:39:37.629Z,59.40
2019-02-23T19:42:05.812Z,60.30
2019-02-23T19:44:35.493Z,60.50
2019-02-23T19:47:03.592Z,61.00
2019-02-23T19:49:31.770Z,61.00
2019-02-23T19:51:59.737Z,61.40
2019-02-23T19:54:28.011Z,61.80
2019-02-23T19:56:57.584Z,62.50
2019-02-23T19:59:25.805Z,63.30
2019-02-23T20:01:53.874Z,64.70
2019-02-23T20:04:22.045Z,65.00
2019-02-23T20:06:50.306Z,64.70
2019-02-23T20:09:18.390Z,64.70
2019-02-23T20:14:44.472Z,64.50
2019-02-23T20:17:12.604Z,64.80
2019-02-23T20:19:40.794Z,65.00
2019-02-23T20:22:08.959Z,65.80
2019-02-23T20:24:37.994Z,65.30
2019-02-23T20:27:06.336Z,64.60
2019-02-23T20:29:34.474Z,64.40
2019-02-23T20:32:02.479Z,64.00
2019-02-23T20:34:30.801Z,64.80
2019-02-23T20:36:58.923Z,67.30
2019-02-23T20:39:28.264Z,67.30
2019-02-23T20:41:56.398Z,68.10
2019-02-23T20:44:24.470Z,67.20
2019-02-23T20:46:52.644Z,66.20
2019-02-23T20:49:20.715Z,67.30
2019-02-23T20:51:48.896Z,67.70
2019-02-23T20:54:16.937Z,69.20
2019-02-23T20:56:45.037Z,68.90
2019-02-23T20:59:13.108Z,69.00
2019-02-23T21:01:41.282Z,69.60
2019-02-23T21:04:10.480Z,69.60
2019-02-23T21:06:40.475Z,71.60
2019-02-23T21:09:08.785Z,71.60
2019-02-23T21:11:36.956Z,72.60
2019-02-23T21:14:05.329Z,73.90
2019-02-23T21:16:33.505Z,74.30
2019-02-23T21:19:02.087Z,74.70
2019-02-23T21:21:30.142Z,76.00
2019-02-23T21:23:58.099Z,76.10
2019-02-23T21:26:26.408Z,76.50
2019-02-23T21:28:54.683Z,76.70
2019-02-23T21:31:22.958Z,77.20
2019-02-23T21:33:50.898Z,77.70
2019-02-23T21:36:18.993Z,78.00
2019-02-23T21:38:46.969Z,79.80
2019-02-23T21:41:15.035Z,80.30
2019-02-23T21:43:43.015Z,80.10
2019-02-23T21:46:11.267Z,79.70
2019-02-23T21:48:39.228Z,80.60
2019-02-23T21:51:07.222Z,81.20
2019-02-23T21:53:35.388Z,81.10
2019-02-23T21:56:03.597Z,81.90
2019-02-23T21:58:31.890Z,83.00
2019-02-23T22:01:01.778Z,83.80
2019-02-23T22:03:30.037Z,84.20
2019-02-23T22:05:58.119Z,85.10
2019-02-23T22:08:26.169Z,85.40
2019-02-23T22:10:54.237Z,85.30
2019-02-23T22:13:22.330Z,85.10
2019-02-23T22:15:50.710Z,84.60
2019-02-23T22:18:19.068Z,84.40
2019-02-23T22:20:47.063Z,84.80
2019-02-23T22:23:15.335Z,84.90
2019-02-23T22:25:43.523Z,85.70
2019-02-23T22:28:11.721Z,86.00
2019-02-23T22:30:41.213Z,86.20
2019-02-23T22:33:09.475Z,86.60
2019-02-23T22:35:37.641Z,89.20
2019-02-23T22:38:06.101Z,90.60
2019-02-23T22:40:34.542Z,91.40
2019-02-23T22:43:02.794Z,92.10
2019-02-23T22:45:31.051Z,92.60
2019-02-23T22:47:59.547Z,93.40
2019-02-23T22:50:27.621Z,94.10
2019-02-23T22:52:55.908Z,94.20
2019-02-23T22:55:24.341Z,94.90
2019-02-23T22:57:52.462Z,95.10
2019-02-23T23:00:24.122Z,95.50
2019-02-23T23:02:52.472Z,96.10
2019-02-23T23:05:20.846Z,96.40
2019-02-23T23:07:48.854Z,96.80
2019-02-23T23:10:17.082Z,96.70
2019-02-23T23:12:45.284Z,96.70
2019-02-23T23:15:13.956Z,96.70
2019-02-23T23:17:42.311Z,97.20
2019-02-23T23:20:10.621Z,97.60
2019-02-23T23:22:38.991Z,97.80
2019-02-23T23:25:06.958Z,98.20
2019-02-23T23:27:35.151Z,98.50
2019-02-23T23:30:03.711Z,99.10
2019-02-23T23:32:31.905Z,99.10
2019-02-23T23:35:00.308Z,99.20
2019-02-23T23:37:28.864Z,99.40
2019-02-23T23:39:56.965Z,99.50
2019-02-23T23:42:25.402Z,99.40
2019-02-23T23:44:53.680Z,99.70
2019-02-23T23:47:21.648Z,99.90
2019-02-23T23:49:50.011Z,99.90
2019-02-23T23:52:18.283Z,99.90
2019-02-23T23:54:46.274Z,99.90
2019-02-23T23:57:14.461Z,99.90
2019-02-23T23:59:42.839Z,99.90
